Terminal Aerodrome Forecast
Issued by NWS

Home | Current Version | Previous Version | Text Only | Print | Product List | Glossary On
Versions: 1 2 3 4 5 6 7 8 9 10 11 12 13 14 15 16 17 18 19 20 21 22 23 24 25
000
FTUS42 KFFC 221134
TAFFTY
TAF
KFTY 221134Z 2212/2312 15004KT P6SM BKN040 BKN050
      TEMPO 2212/2214 5SM BR BKN012
     FM221700 19007KT P6SM SCT035 BKN050
     FM222000 20007KT P6SM SCT050 BKN080
     FM230000 14005KT P6SM SCT080
     FM231000 13004KT 4SM BR BKN030=

USA.gov is the U.S. government's official web portal to all federal, state and local government web resources and services.